This is the latest recevied weather packets stored in our database for station/object LRBC. If no packets are shown the sender has not sent any weather packets the latest 1 day(s).
| Time | Temp. | Humidity | Pressure | Rain* | Wind** | Luminosity | Snow |
|---|---|---|---|---|---|---|---|
| 1777993428 | 26.11° C | 26% | 1012 hPa | - | 2.68 m/s, 150° | - | - |
| 1777992528 | 26.11° C | 30% | 1012 hPa | - | 2.68 m/s, 160° | - | - |
| 1777991628 | 26.11° C | 30% | 1012 hPa | - | 2.68 m/s, 160° | - | - |
| 1777990728 | 26.11° C | 26% | 1012 hPa | - | 2.24 m/s, 140° | - | - |
| 1777989827 | 26.11° C | 26% | 1012 hPa | - | 2.24 m/s, 140° | - | - |
| 1777988966 | 27.22° C | 23% | 1012 hPa | - | 2.24 m/s, 140° | - | - |
| 1777988028 | 27.22° C | 23% | 1012 hPa | - | 2.24 m/s, 140° | - | - |
| 1777987127 | 27.22° C | 24% | 1013 hPa | - | 1.34 m/s, 160° | - | - |
| 1777986227 | 27.22° C | 24% | 1013 hPa | - | 1.34 m/s, 160° | - | - |
| 1777983527 | 26.11° C | 24% | 1013 hPa | - | 3.58 m/s, 320° | - | - |
| 1777979928 | 26.11° C | 28% | 1014 hPa | - | 2.68 m/s, 330° | - | - |
| 1777979028 | 26.11° C | 28% | 1014 hPa | - | 2.68 m/s, 330° | - | - |
| 1777976328 | 25° C | 22% | 1014 hPa | - | 1.34 m/s, 90° | - | - |
| 1777975428 | 25° C | 22% | 1014 hPa | - | 1.34 m/s, 90° | - | - |
| 1777967349 | 20° C | 43% | 1015 hPa | - | 1.34 m/s, 140° | - | - |
| 1777966427 | 20° C | 43% | 1015 hPa | - | 1.34 m/s, 140° | - | - |
| 1777956527 | 8.89° C | 87% | 1015 hPa | - | 1.34 m/s, 340° | - | - |
| 1777955627 | 8.89° C | 87% | 1015 hPa | - | 1.34 m/s, 340° | - | - |
| 1777954728 | 7.22° C | 93% | 1015 hPa | - | 0.89 m/s, 350° | - | - |
| 1777953827 | 7.22° C | 93% | 1015 hPa | - | 0.89 m/s, 350° | - | - |
| 1777952924 | 7.22° C | 81% | 1015 hPa | - | 0.89 m/s, 340° | - | - |
| 1777952027 | 7.22° C | 81% | 1015 hPa | - | 0.89 m/s, 340° | - | - |
* Rain since midnight (hover to see other rain measurements)
** Current wind speed in m/s (hover to see current wind gust speed)